Time;durP1;ratioP1;P1;durP2;ratioP2;P2;SDS_P1;SDS_P2;PMS_P1;PMS_P2;Temp;Humidity;BMP_temperature;BMP_pressure;BME280_temperature;BME280_humidity;BME280_pressure;Samples;Min_cycle;Max_cycle;Signal;HPM_P1;HPM_P2
2021/07/14 00:00:09;;;;;;;6.32;2.67;;;23.30;99.90;;;25.42;55.34;96835.09;170545;29;1772;-73
2021/07/14 00:00:18;;;;;;;6.29;2.55;;;23.30;99.90;;;25.43;55.05;96835.91;171655;28;1450;-73
2021/07/14 00:00:25;;;;;;;6.22;2.49;;;23.30;99.90;;;25.42;55.29;96828.75;171241;28;1134;-72
2021/07/14 00:00:31;;;;;;;6.10;2.50;;;23.30;99.90;;;25.46;55.09;96843.56;170532;29;1264;-73
2021/07/14 00:00:37;;;;;;;5.57;2.57;;;23.30;99.90;;;25.43;54.64;96831.22;170592;29;923;-72
2021/07/14 00:00:42;;;;;;;4.90;2.50;;;23.30;99.90;;;25.49;54.63;96840.25;171166;28;1180;-72
2021/07/14 00:00:49;;;;;;;5.10;2.70;;;23.30;99.90;;;25.48;54.35;96839.41;171210;28;876;-73
2021/07/14 00:00:56;;;;;;;5.43;2.77;;;23.30;99.90;;;25.52;54.77;96834.13;171271;28;946;-72
2021/07/14 00:01:05;;;;;;;6.20;2.83;;;23.30;99.90;;;25.49;54.67;96834.72;170608;29;888;-72
2021/07/14 00:01:12;;;;;;;6.39;2.87;;;23.30;99.90;;;25.48;54.96;96833.91;170423;28;1582;-73
2021/07/14 00:01:18;;;;;;;6.77;2.93;;;23.30;99.90;;;25.53;54.91;96835.75;170521;29;1405;-73
2021/07/14 00:01:24;;;;;;;6.53;2.93;;;23.30;99.90;;;25.54;54.83;96826.38;171180;28;1394;-72
2021/07/14 00:01:30;;;;;;;5.63;3.00;;;23.30;99.90;;;25.58;54.48;96836.53;169840;29;1748;-72
2021/07/14 00:01:36;;;;;;;5.90;3.05;;;23.20;99.90;;;25.59;54.77;96840.13;170183;29;1638;-72
2021/07/14 00:01:42;;;;;;;6.32;3.17;;;23.30;99.90;;;25.54;54.51;96823.63;170594;29;946;-72
2021/07/14 00:01:48;;;;;;;6.97;3.30;;;23.20;99.90;;;25.55;54.65;96825.25;169549;29;1090;-72
2021/07/14 00:01:54;;;;;;;7.07;3.23;;;23.20;99.90;;;25.57;54.68;96825.81;169922;29;940;-72
2021/07/14 00:02:01;;;;;;;7.65;3.17;;;23.20;99.90;;;25.59;54.36;96834.59;169953;29;1052;-72
2021/07/14 00:02:07;;;;;;;9.40;3.14;;;23.30;99.90;;;25.57;54.37;96834.06;169891;29;1034;-72
2021/07/14 00:02:13;;;;;;;8.50;3.00;;;23.30;99.90;;;25.53;54.41;96835.75;170608;29;849;-72
2021/07/14 00:02:19;;;;;;;8.23;2.97;;;23.30;99.90;;;25.53;54.54;96833.00;170581;29;920;-73
2021/07/14 00:02:25;;;;;;;7.68;2.90;;;23.30;99.90;;;25.47;54.39;96826.75;170513;29;1270;-72
2021/07/14 00:02:31;;;;;;;9.45;2.80;;;23.30;99.90;;;25.48;54.53;96828.38;169955;29;935;-72
2021/07/14 00:02:37;;;;;;;7.90;2.78;;;23.30;99.90;;;25.46;54.49;96833.38;169922;29;1483;-72
2021/07/14 00:02:43;;;;;;;8.10;2.60;;;23.20;99.90;;;25.49;54.85;96832.78;169867;29;1433;-73
2021/07/14 00:02:49;;;;;;;7.80;2.50;;;23.20;99.90;;;25.46;54.61;96833.38;170539;29;1892;-73
2021/07/14 00:02:55;;;;;;;8.52;2.65;;;23.30;99.90;;;25.46;54.81;96827.03;171227;28;932;-73
2021/07/14 00:03:01;;;;;;;6.53;2.80;;;23.30;99.90;;;25.53;54.58;96830.25;171243;28;1466;-72
2021/07/14 00:03:07;;;;;;;6.57;2.75;;;23.30;99.90;;;25.44;54.54;96821.03;171223;28;851;-72
2021/07/14 00:03:13;;;;;;;6.85;2.83;;;23.30;99.90;;;25.55;54.70;96839.03;170530;29;852;-72
2021/07/14 00:03:19;;;;;;;7.28;2.95;;;23.30;99.90;;;25.51;54.53;96835.22;170659;29;852;-73
2021/07/14 00:03:28;;;;;;;6.38;2.67;;;23.20;99.90;;;25.51;54.59;96829.72;170469;29;1177;-74
2021/07/14 00:03:34;;;;;;;5.57;2.50;;;23.20;99.90;;;25.56;54.69;96838.75;171130;28;1501;-72
2021/07/14 00:03:40;;;;;;;4.93;2.50;;;23.30;99.90;;;25.62;54.62;96839.50;171087;28;1144;-73
2021/07/14 00:03:46;;;;;;;3.85;2.42;;;23.30;99.90;;;25.62;54.67;96837.56;169803;28;1492;-73
2021/07/14 00:03:53;;;;;;;4.85;2.50;;;23.30;99.90;;;25.67;54.34;96847.69;170553;29;923;-72
2021/07/14 00:03:59;;;;;;;5.77;2.73;;;23.30;99.90;;;25.65;54.37;96841.66;171301;28;954;-72
2021/07/14 00:04:05;;;;;;;6.43;2.72;;;23.30;99.90;;;25.59;54.24;96824.41;170593;29;948;-72
2021/07/14 00:04:11;;;;;;;6.97;2.88;;;23.30;99.90;;;25.61;54.34;96833.16;170243;29;1500;-72
2021/07/14 00:04:17;;;;;;;7.50;2.90;;;23.30;99.90;;;25.63;54.36;96841.16;170590;29;860;-72
2021/07/14 00:04:22;;;;;;;6.78;3.00;;;23.30;99.90;;;25.61;54.65;96843.38;169938;29;1038;-72
2021/07/14 00:04:29;;;;;;;6.10;2.83;;;23.30;99.90;;;25.61;54.73;96843.38;169915;29;920;-73
2021/07/14 00:04:38;;;;;;;8.20;2.90;;;23.30;99.90;;;25.52;54.68;96828.59;169853;29;845;-72
2021/07/14 00:04:44;;;;;;;8.73;2.83;;;23.30;99.90;;;25.61;54.35;96848.88;171249;28;887;-72
2021/07/14 00:04:50;;;;;;;8.65;2.85;;;23.30;99.90;;;25.52;54.43;96832.19;172374;28;1175;-72
2021/07/14 00:04:56;;;;;;;9.07;2.97;;;23.30;99.90;;;25.55;54.39;96841.78;171104;28;1242;-72
2021/07/14 00:05:11;;;;;;;9.15;3.00;;;23.30;99.90;;;25.52;54.78;96831.38;171678;28;1637;-73
2021/07/14 00:05:19;;;;;;;6.69;2.89;;;23.30;99.90;;;25.57;54.39;96842.34;170434;29;1403;-72
2021/07/14 00:05:26;;;;;;;6.27;2.70;;;23.30;99.90;;;25.63;54.28;96839.22;168982;29;1723;-72
2021/07/14 00:05:32;;;;;;;6.40;2.60;;;23.30;99.90;;;25.65;54.14;96844.41;169302;29;912;-72
2021/07/14 00:05:40;;;;;;;4.86;2.46;;;23.30;99.90;;;25.68;54.06;96846.59;170483;29;1331;-72
2021/07/14 00:05:46;;;;;;;5.33;2.50;;;23.30;99.90;;;25.64;53.92;96843.63;171206;28;974;-72
2021/07/14 00:05:53;;;;;;;5.63;2.58;;;23.30;99.90;;;25.58;53.91;96833.78;170571;29;828;-72
2021/07/14 00:05:59;;;;;;;5.53;2.67;;;23.30;99.90;;;25.56;53.89;96833.25;171083;28;1467;-72
2021/07/14 00:06:05;;;;;;;5.60;2.72;;;23.30;99.90;;;25.57;53.81;96836.81;171820;28;1279;-72
2021/07/14 00:06:11;;;;;;;5.63;2.70;;;23.30;99.90;;;25.62;54.15;96842.25;170471;29;1236;-72
2021/07/14 00:06:16;;;;;;;5.53;2.70;;;23.30;99.90;;;25.58;54.09;96838.47;169844;29;821;-73
2021/07/14 00:06:22;;;;;;;4.70;2.53;;;23.30;99.90;;;25.62;54.08;96851.34;169860;29;1295;-72
2021/07/14 00:06:28;;;;;;;4.60;2.57;;;23.30;99.90;;;25.58;54.00;96832.97;170652;29;927;-73
2021/07/14 00:06:35;;;;;;;6.00;2.60;;;23.30;99.90;;;25.59;54.09;96843.69;171256;28;868;-72
2021/07/14 00:06:42;;;;;;;6.20;2.50;;;23.30;99.90;;;25.58;54.33;96855.00;170498;28;1359;-73
2021/07/14 00:06:48;;;;;;;8.00;2.58;;;23.30;99.90;;;25.57;54.13;96847.84;171910;28;917;-72
2021/07/14 00:06:54;;;;;;;9.88;2.63;;;23.30;99.90;;;25.45;54.28;96840.00;171866;28;903;-73
2021/07/14 00:07:00;;;;;;;10.53;2.57;;;23.30;99.90;;;25.49;54.26;96843.81;171245;28;876;-72
2021/07/14 00:07:06;;;;;;;10.43;2.70;;;23.30;99.90;;;25.53;54.39;96846.78;170376;29;1303;-72
2021/07/14 00:07:12;;;;;;;9.90;2.84;;;23.30;99.90;;;25.49;54.32;96831.97;170502;29;1085;-73
2021/07/14 00:07:18;;;;;;;7.85;2.78;;;23.30;99.90;;;25.50;54.32;96842.69;169921;29;1066;-72
2021/07/14 00:07:24;;;;;;;6.72;2.85;;;23.30;99.90;;;25.55;54.14;96850.03;169330;29;900;-72
2021/07/14 00:07:30;;;;;;;5.37;2.90;;;23.30;99.90;;;25.48;54.37;96835.84;170514;29;829;-72
2021/07/14 00:07:37;;;;;;;5.03;2.90;;;23.30;99.90;;;25.51;54.04;96844.31;169888;29;1032;-72
2021/07/14 00:07:44;;;;;;;5.02;2.82;;;23.20;99.90;;;25.59;54.03;96851.13;169767;29;1094;-73
2021/07/14 00:07:51;;;;;;;5.93;2.90;;;23.20;99.90;;;25.57;54.63;96848.69;169262;29;853;-72
2021/07/14 00:07:57;;;;;;;5.68;2.80;;;23.20;99.90;;;25.47;54.58;96839.69;169841;29;946;-72
2021/07/14 00:08:05;;;;;;;5.70;2.78;;;23.30;99.90;;;25.53;54.59;96852.28;169245;29;923;-72
2021/07/14 00:08:11;;;;;;;5.72;2.67;;;23.30;99.90;;;25.48;54.22;96833.09;169798;29;1579;-72
2021/07/14 00:08:17;;;;;;;5.72;2.88;;;23.20;99.90;;;25.42;54.29;96832.34;169826;29;951;-73
2021/07/14 00:08:23;;;;;;;5.75;2.70;;;23.30;99.90;;;25.50;54.03;96839.09;169915;29;888;-73
2021/07/14 00:08:29;;;;;;;6.28;2.88;;;23.30;99.90;;;25.49;54.48;96840.25;169172;29;1428;-72
2021/07/14 00:08:35;;;;;;;6.77;2.83;;;23.30;99.90;;;25.49;54.32;96843.81;169861;29;1252;-72
2021/07/14 00:08:42;;;;;;;6.50;2.88;;;23.30;99.90;;;25.51;54.30;96847.06;169857;29;1310;-72
2021/07/14 00:08:48;;;;;;;6.80;2.87;;;23.30;99.90;;;25.50;54.42;96844.59;169936;29;904;-72
2021/07/14 00:08:53;;;;;;;6.20;2.92;;;23.20;99.90;;;25.52;54.55;96864.44;169849;29;904;-72
2021/07/14 00:08:59;;;;;;;5.55;2.83;;;23.30;99.90;;;25.39;54.59;96847.50;169223;29;968;-72
2021/07/14 00:09:10;;;;;;;4.93;2.80;;;23.30;99.90;;;25.24;55.51;96860.69;168449;29;1470;-73
2021/07/14 00:09:16;;;;;;;4.70;2.67;;;23.20;99.90;;;25.20;55.49;96852.19;169286;29;1126;-73
2021/07/14 00:09:22;;;;;;;4.78;2.67;;;23.20;99.90;;;25.18;55.57;96851.66;169127;29;1361;-72
2021/07/14 00:09:28;;;;;;;4.55;2.58;;;23.10;99.90;;;25.13;55.53;96854.47;169164;29;1042;-73
2021/07/14 00:09:34;;;;;;;5.45;2.65;;;23.10;99.90;;;25.15;55.65;96863.28;169241;29;801;-72
2021/07/14 00:09:40;;;;;;;5.78;2.60;;;23.10;99.90;;;25.10;55.67;96854.25;168906;29;1705;-72
2021/07/14 00:09:46;;;;;;;5.33;2.63;;;23.10;99.90;;;25.09;55.62;96856.19;169241;29;841;-72
2021/07/14 00:09:52;;;;;;;5.15;2.70;;;23.10;99.90;;;25.01;55.88;96850.53;169277;29;952;-73
2021/07/14 00:09:58;;;;;;;5.70;2.83;;;23.10;99.90;;;25.03;55.68;96862.88;169960;29;962;-72
2021/07/14 00:10:32;;;;;;;5.35;2.85;;;23.10;99.90;;;25.04;55.92;96859.00;170507;28;1263;-72
2021/07/14 00:10:38;;;;;;;5.99;2.97;;;23.10;99.90;;;25.11;55.72;96858.66;169758;29;2868;-73
2021/07/14 00:10:45;;;;;;;7.07;3.00;;;23.10;99.90;;;25.14;55.80;96858.06;169857;29;1232;-74
2021/07/14 00:10:51;;;;;;;6.54;3.06;;;23.00;99.90;;;25.17;55.46;96863.00;169914;29;955;-72
2021/07/14 00:10:58;;;;;;;7.80;3.08;;;23.00;99.90;;;25.15;55.36;96852.25;169134;29;1393;-72
2021/07/14 00:11:04;;;;;;;8.06;3.12;;;23.10;99.90;;;25.24;55.47;96868.94;169293;29;904;-72
2021/07/14 00:11:10;;;;;;;8.10;3.13;;;23.00;99.90;;;25.27;55.26;96871.13;169561;29;2221;-72
2021/07/14 00:11:16;;;;;;;8.00;3.00;;;23.00;99.90;;;25.24;55.11;96861.50;170562;29;892;-72
2021/07/14 00:11:22;;;;;;;7.50;2.83;;;23.10;99.90;;;25.24;55.07;96864.25;170551;29;1033;-72
2021/07/14 00:11:30;;;;;;;6.07;2.80;;;23.00;99.90;;;25.23;55.38;96868.13;170464;29;1338;-72
2021/07/14 00:11:40;;;;;;;5.55;2.77;;;23.00;99.90;;;25.17;55.11;96851.97;170503;29;955;-73
2021/07/14 00:12:19;;;;;;;7.57;2.84;;;23.00;99.90;;;25.40;55.11;96870.38;169813;29;1224;-72
2021/07/14 00:12:20;;;;;;;5.73;2.71;;;23.00;99.90;;;25.32;55.10;96874.63;170460;29;1475;-72
2021/07/14 00:12:27;;;;;;;8.96;2.66;;;23.10;99.90;;;25.37;55.18;96858.03;169662;29;1471;-73
2021/07/14 00:12:42;;;;;;;8.38;2.60;;;23.00;99.90;;;25.32;54.68;96858.09;169920;29;961;-72
2021/07/14 00:12:58;;;;;;;6.57;2.64;;;23.10;99.90;;;25.30;55.04;96870.50;171145;28;1232;-72
2021/07/14 00:14:16;;;;;;;7.09;2.88;;;23.10;99.90;;;25.20;55.29;96865.16;170502;29;1203;-72
2021/07/14 00:14:57;;;;;;;6.30;2.66;;;23.10;99.90;;;25.19;55.54;96878.09;168552;29;1187;-72
2021/07/14 00:17:00;;;;;;;6.53;2.90;;;23.10;99.90;;;25.19;55.55;96880.03;167732;29;1235;-72
2021/07/14 00:17:44;;;;;;;5.85;2.65;;;23.10;99.90;;;25.20;55.26;96882.50;169197;29;926;-72
2021/07/14 00:22:06;;;;;;;5.44;2.75;;;23.10;99.90;;;25.29;54.95;96886.22;169191;29;1204;-72
2021/07/14 00:22:14;;;;;;;8.24;3.04;;;23.10;99.90;;;25.21;55.45;96886.91;169522;29;2691;-72
2021/07/14 00:22:20;;;;;;;10.57;3.10;;;23.10;99.90;;;25.22;55.46;96899.56;169865;29;868;-72
2021/07/14 00:22:26;;;;;;;8.85;2.95;;;23.10;99.90;;;25.18;55.51;96895.72;169833;29;884;-72
2021/07/14 00:22:34;;;;;;;7.17;2.93;;;23.10;99.90;;;25.17;55.51;96894.13;169299;29;959;-72
2021/07/14 00:22:41;;;;;;;7.17;3.00;;;23.10;99.90;;;25.18;55.69;96901.25;169898;29;1006;-72
2021/07/14 00:22:46;;;;;;;8.20;2.80;;;23.10;99.90;;;25.24;55.50;96899.25;169821;29;1257;-72
2021/07/14 00:22:52;;;;;;;7.57;2.80;;;23.10;99.90;;;25.27;55.47;96898.66;170451;29;1962;-73
2021/07/14 00:22:58;;;;;;;8.07;2.90;;;23.10;99.90;;;25.26;55.73;96894.25;170404;28;1340;-72
2021/07/14 00:23:04;;;;;;;8.35;2.95;;;23.10;99.90;;;25.25;55.83;96900.88;169865;29;971;-71
2021/07/14 00:23:10;;;;;;;7.10;2.90;;;23.10;99.90;;;25.18;55.63;96892.19;170553;29;995;-72
2021/07/14 00:23:16;;;;;;;5.90;2.80;;;23.10;99.90;;;25.11;55.77;96887.03;170415;29;1324;-73
2021/07/14 00:23:22;;;;;;;5.60;2.80;;;23.10;99.90;;;25.20;55.76;96901.78;171193;28;1365;-73
2021/07/14 00:23:30;;;;;;;6.43;2.90;;;23.10;99.90;;;25.13;55.91;96890.28;171256;28;1036;-72
2021/07/14 00:23:40;;;;;;;6.57;2.80;;;23.10;99.90;;;25.18;55.81;96903.19;171069;28;1404;-72
2021/07/14 00:23:46;;;;;;;7.14;2.99;;;23.10;99.90;;;25.16;56.13;96895.22;170478;29;1274;-72
2021/07/14 00:23:52;;;;;;;7.03;2.97;;;23.10;99.90;;;25.17;55.93;96891.34;170604;29;967;-72
2021/07/14 00:24:01;;;;;;;5.87;2.83;;;23.10;99.90;;;25.14;56.07;96894.69;171244;28;852;-72
2021/07/14 00:24:07;;;;;;;6.16;3.04;;;23.10;99.90;;;25.17;56.14;96901.56;170431;29;1521;-72
2021/07/14 00:24:13;;;;;;;6.53;3.00;;;23.10;99.90;;;25.04;56.13;96883.78;169950;29;915;-72
2021/07/14 00:24:19;;;;;;;6.90;3.00;;;23.10;99.90;;;25.14;55.91;96897.44;169143;29;1503;-72
2021/07/14 00:24:25;;;;;;;6.93;3.05;;;23.10;99.90;;;25.21;55.87;96905.34;168495;29;1336;-73
2021/07/14 00:24:31;;;;;;;8.02;3.22;;;23.10;99.90;;;25.15;55.87;96895.50;169256;29;914;-73
2021/07/14 00:24:38;;;;;;;8.68;2.97;;;23.10;99.90;;;25.18;55.84;96905.94;170501;29;1440;-72
2021/07/14 00:24:44;;;;;;;10.27;2.90;;;23.10;99.90;;;25.16;55.93;96900.72;170520;29;939;-72
2021/07/14 00:24:52;;;;;;;10.18;3.03;;;23.10;99.90;;;25.19;55.94;96902.06;170883;28;1600;-73
2021/07/14 00:24:59;;;;;;;10.70;2.85;;;23.10;99.90;;;25.15;55.73;96898.25;171791;28;1351;-72
2021/07/14 00:25:14;;;;;;;10.34;2.76;;;23.10;99.90;;;25.25;55.78;96903.63;170572;28;1463;-72
2021/07/14 00:25:20;;;;;;;8.10;2.67;;;23.10;99.90;;;25.20;55.63;96904.53;169813;29;1207;-72
2021/07/14 00:25:26;;;;;;;7.30;2.67;;;23.10;99.90;;;25.28;55.72;96906.66;170587;29;876;-72
2021/07/14 00:25:32;;;;;;;7.05;2.80;;;23.10;99.90;;;25.27;55.37;96895.91;171180;28;1422;-72
2021/07/14 00:25:38;;;;;;;6.70;2.90;;;23.10;99.90;;;25.28;55.40;96903.88;171879;28;978;-72
2021/07/14 00:25:44;;;;;;;5.70;2.90;;;23.10;99.90;;;25.32;55.51;96906.88;171202;28;1002;-72
2021/07/14 00:25:50;;;;;;;5.67;3.10;;;23.10;99.90;;;25.30;55.65;96903.56;171181;28;1086;-72
2021/07/14 00:25:56;;;;;;;5.73;3.17;;;23.10;99.90;;;25.29;55.41;96899.19;169867;29;904;-72
2021/07/14 00:26:02;;;;;;;5.67;3.17;;;23.10;99.90;;;25.31;55.36;96902.47;169956;29;895;-73
2021/07/14 00:26:08;;;;;;;6.63;3.13;;;23.10;99.90;;;25.35;55.50;96911.78;170153;29;2025;-72
2021/07/14 00:26:15;;;;;;;6.83;3.20;;;23.10;99.90;;;25.38;55.31;96906.50;171254;28;844;-72
2021/07/14 00:26:21;;;;;;;7.43;3.35;;;23.10;99.90;;;25.40;55.53;96904.25;171180;28;1058;-72
2021/07/14 00:26:27;;;;;;;8.50;3.35;;;23.10;99.90;;;25.31;55.58;96895.03;171248;28;1115;-72
2021/07/14 00:26:33;;;;;;;8.90;3.30;;;23.10;99.90;;;25.34;55.44;96905.44;169949;29;955;-72
2021/07/14 00:26:39;;;;;;;9.25;3.25;;;23.10;99.90;;;25.30;55.31;96903.56;170621;29;868;-73
2021/07/14 00:26:45;;;;;;;9.50;3.20;;;23.10;99.90;;;25.26;55.75;96899.78;169904;29;1077;-72
2021/07/14 00:26:52;;;;;;;8.27;2.97;;;23.10;99.90;;;25.29;55.85;96905.50;170543;28;884;-73
2021/07/14 00:26:57;;;;;;;6.97;2.80;;;23.10;99.90;;;25.28;55.84;96906.66;171796;28;1183;-72
2021/07/14 00:27:06;;;;;;;6.25;2.67;;;23.10;99.90;;;25.29;55.99;96900.00;170424;29;1213;-72
2021/07/14 00:27:12;;;;;;;5.52;2.57;;;23.10;99.90;;;25.35;55.92;96909.84;171187;28;948;-72
2021/07/14 00:27:19;;;;;;;5.43;2.40;;;23.10;99.90;;;25.33;55.79;96908.50;169900;29;883;-72
2021/07/14 00:27:25;;;;;;;7.43;2.50;;;23.10;99.90;;;25.31;55.35;96905.22;169358;29;1614;-72
2021/07/14 00:27:32;;;;;;;8.55;2.70;;;23.10;99.90;;;25.30;55.62;96903.56;169143;29;1443;-72
2021/07/14 00:27:44;;;;;;;8.97;3.03;;;23.10;99.90;;;25.35;55.79;96917.28;169142;29;1367;-72
2021/07/14 00:27:51;;;;;;;8.45;3.14;;;23.10;99.90;;;25.27;55.75;96902.25;170594;29;1213;-72
2021/07/14 00:27:57;;;;;;;6.70;3.07;;;23.10;99.90;;;25.23;55.56;96906.69;170536;29;935;-73
2021/07/14 00:28:05;;;;;;;5.83;2.87;;;23.10;99.90;;;25.20;55.51;96901.78;170473;28;955;-72
2021/07/14 00:28:10;;;;;;;5.23;2.80;;;23.10;99.90;;;25.26;55.47;96919.06;169282;29;1131;-72
2021/07/14 00:28:17;;;;;;;5.38;2.85;;;23.10;99.90;;;25.21;55.58;96908.09;169196;29;951;-72
2021/07/14 00:28:25;;;;;;;4.93;2.83;;;23.10;99.90;;;25.26;55.64;96919.88;169268;29;908;-72
2021/07/14 00:28:33;;;;;;;6.03;3.00;;;23.10;99.90;;;25.26;55.63;96908.88;169179;29;1312;-74
2021/07/14 00:28:40;;;;;;;5.75;3.02;;;23.10;99.90;;;25.30;55.47;96920.94;170546;29;949;-72
2021/07/14 00:28:51;;;;;;;5.90;2.93;;;23.10;99.90;;;25.33;55.49;96917.59;170610;29;884;-72
2021/07/14 00:28:57;;;;;;;6.64;2.89;;;23.10;99.90;;;25.32;55.43;96909.63;169170;29;1217;-72
2021/07/14 00:29:05;;;;;;;7.15;2.72;;;23.10;99.90;;;25.25;55.36;96914.66;170598;29;884;-72
2021/07/14 00:29:12;;;;;;;7.73;2.73;;;23.10;99.90;;;25.30;55.50;96918.19;170500;29;960;-73
2021/07/14 00:29:18;;;;;;;7.38;2.80;;;23.10;99.90;;;25.29;55.58;96924.78;169200;29;971;-72
2021/07/14 00:29:24;;;;;;;6.82;2.80;;;23.10;99.90;;;25.29;55.66;96926.72;169841;29;841;-72
2021/07/14 00:29:30;;;;;;;7.53;3.13;;;23.10;99.90;;;25.29;55.59;96923.97;169910;29;939;-72
2021/07/14 00:29:40;;;;;;;7.73;3.30;;;23.10;99.90;;;25.26;55.41;96917.13;169891;29;944;-72
2021/07/14 00:29:53;;;;;;;8.21;3.36;;;23.10;99.90;;;25.28;55.58;96917.66;171108;28;1477;-72
2021/07/14 00:30:07;;;;;;;9.14;3.25;;;23.10;99.90;;;25.32;55.46;96915.97;171278;28;1264;-72
2021/07/14 00:30:18;;;;;;;8.88;3.04;;;23.10;99.90;;;25.30;55.54;96909.91;172409;28;2821;-72
2021/07/14 00:30:26;;;;;;;10.73;3.01;;;23.10;99.90;;;25.29;55.69;96913.78;169848;28;2876;-72
2021/07/14 00:30:35;;;;;;;10.73;3.03;;;23.10;99.90;;;25.30;55.92;96909.91;169914;29;947;-72
2021/07/14 00:30:48;;;;;;;10.80;3.05;;;23.10;99.90;;;25.30;55.64;96909.91;171252;28;969;-72
2021/07/14 00:31:01;;;;;;;8.05;3.17;;;23.10;99.90;;;25.33;55.35;96908.50;170588;29;1205;-72
2021/07/14 00:31:13;;;;;;;6.81;3.26;;;23.10;99.90;;;25.33;55.23;96914.03;171237;28;1223;-72
2021/07/14 00:31:20;;;;;;;6.80;3.16;;;23.10;99.90;;;25.31;54.96;96905.22;169869;29;1397;-73
2021/07/14 00:31:25;;;;;;;7.57;3.10;;;23.10;99.90;;;25.35;55.35;96912.59;169926;29;887;-72
2021/07/14 00:31:31;;;;;;;7.97;3.20;;;23.10;99.90;;;25.37;55.16;96915.06;169843;29;1217;-73
2021/07/14 00:31:40;;;;;;;7.72;3.25;;;23.10;99.90;;;25.38;55.31;96911.19;169831;29;1280;-72
2021/07/14 00:31:45;;;;;;;7.60;3.23;;;23.10;99.90;;;25.36;55.02;96902.41;169716;29;1462;-73
2021/07/14 00:31:51;;;;;;;8.13;3.30;;;23.10;99.90;;;25.44;55.42;96918.25;170496;29;1316;-72
2021/07/14 00:31:57;;;;;;;7.93;3.28;;;23.10;99.90;;;25.38;55.54;96911.19;170521;29;934;-72
2021/07/14 00:32:07;;;;;;;7.82;3.10;;;23.10;99.90;;;25.38;55.51;96913.97;171147;28;1336;-73
2021/07/14 00:32:13;;;;;;;7.91;3.03;;;23.10;99.90;;;25.25;55.74;96900.88;169891;29;1025;-73
2021/07/14 00:32:20;;;;;;;9.25;3.30;;;23.10;99.90;;;25.35;55.55;96912.59;169854;29;986;-72
2021/07/14 00:32:27;;;;;;;9.36;3.34;;;23.10;99.90;;;25.27;55.92;96904.19;170566;29;1075;-72
2021/07/14 00:32:33;;;;;;;9.04;3.30;;;23.10;99.90;;;25.34;55.69;96915.63;169887;29;1090;-72
2021/07/14 00:32:39;;;;;;;8.80;3.20;;;23.10;99.90;;;25.36;55.65;96919.75;171159;28;1695;-72
2021/07/14 00:32:45;;;;;;;8.50;2.95;;;23.10;99.90;;;25.29;55.64;96901.94;171214;28;863;-72
2021/07/14 00:32:51;;;;;;;6.60;2.70;;;23.10;99.90;;;25.25;55.99;96895.38;171986;28;871;-72
2021/07/14 00:32:57;;;;;;;5.72;2.65;;;23.10;99.90;;;25.32;55.67;96910.44;171175;28;982;-72
2021/07/14 00:33:04;;;;;;;5.93;2.70;;;23.10;99.90;;;25.27;55.71;96915.19;171892;28;1033;-72
2021/07/14 00:33:10;;;;;;;7.03;2.87;;;23.10;99.90;;;25.25;55.93;96909.97;170006;28;1984;-72
2021/07/14 00:33:16;;;;;;;8.43;3.05;;;23.10;99.90;;;25.26;55.59;96917.13;170530;29;837;-73
2021/07/14 00:33:24;;;;;;;9.40;3.10;;;23.10;99.90;;;25.24;56.02;96908.31;170438;28;1736;-72
2021/07/14 00:33:31;;;;;;;8.93;3.05;;;23.10;99.90;;;25.31;55.93;96907.97;170529;29;985;-73
2021/07/14 00:33:37;;;;;;;9.55;3.20;;;23.20;99.90;;;25.31;55.88;96925.34;170593;29;840;-73
2021/07/14 00:33:44;;;;;;;8.80;3.17;;;23.10;99.90;;;25.17;56.24;96909.81;170454;29;1366;-73
2021/07/14 00:33:50;;;;;;;8.73;3.20;;;23.10;99.90;;;25.16;56.26;96911.75;170496;29;940;-73
2021/07/14 00:33:56;;;;;;;9.80;3.40;;;23.10;99.90;;;25.18;56.67;96916.97;171214;28;930;-72
2021/07/14 00:34:02;;;;;;;9.65;3.35;;;23.10;99.90;;;25.17;56.52;96921.66;170652;29;954;-73
2021/07/14 00:34:08;;;;;;;9.63;3.35;;;23.10;99.90;;;25.11;56.50;96908.22;170434;29;1431;-72
2021/07/14 00:34:14;;;;;;;9.13;3.37;;;23.10;99.90;;;25.09;56.54;96914.03;170402;29;1592;-73
2021/07/14 00:34:20;;;;;;;7.72;3.28;;;23.10;99.90;;;25.13;56.63;96915.06;170510;29;907;-73
2021/07/14 00:34:26;;;;;;;7.40;3.05;;;23.10;99.90;;;25.17;56.77;96918.91;170360;28;1225;-72
2021/07/14 00:34:33;;;;;;;8.47;3.13;;;23.10;99.90;;;25.15;56.60;96918.38;170575;28;863;-73
2021/07/14 00:34:39;;;;;;;8.17;3.00;;;23.10;99.90;;;25.18;56.36;96926.03;171115;28;1417;-72
2021/07/14 00:34:45;;;;;;;7.97;2.90;;;23.10;99.90;;;25.16;56.21;96920.00;171208;28;903;-72
2021/07/14 00:34:54;;;;;;;7.83;2.90;;;23.10;99.90;;;25.13;56.62;96917.81;169292;29;931;-72
2021/07/14 00:34:59;;;;;;;7.67;2.82;;;23.10;99.90;;;25.14;56.66;96924.16;169808;29;1650;-72
2021/07/14 00:35:08;;;;;;;6.55;2.80;;;23.10;99.90;;;25.10;56.53;96923.94;170702;28;1659;-72
2021/07/14 00:35:14;;;;;;;8.03;3.00;;;23.10;99.90;;;25.07;56.82;96915.44;170225;29;2021;-72
2021/07/14 00:35:20;;;;;;;10.30;3.20;;;23.10;99.90;;;25.08;56.89;96920.63;171878;28;855;-72
2021/07/14 00:35:26;;;;;;;9.93;3.33;;;23.10;99.90;;;25.10;56.92;96923.09;169931;29;835;-73
2021/07/14 00:35:32;;;;;;;10.30;3.50;;;23.10;99.90;;;25.14;56.72;96924.16;169967;29;860;-72
2021/07/14 00:35:38;;;;;;;11.63;3.33;;;23.10;99.90;;;25.08;56.85;96909.63;171093;28;1465;-73
2021/07/14 00:35:44;;;;;;;11.10;3.30;;;23.10;99.90;;;25.15;56.78;96925.81;170992;28;1833;-72
2021/07/14 00:35:50;;;;;;;9.07;3.20;;;23.10;99.90;;;25.05;56.71;96912.16;171761;28;1622;-72
2021/07/14 00:35:56;;;;;;;11.00;3.10;;;23.10;99.90;;;25.15;56.79;96926.63;171914;28;943;-72
2021/07/14 00:36:02;;;;;;;12.30;2.90;;;23.10;99.90;;;25.13;57.05;96926.09;170594;29;978;-72
2021/07/14 00:36:09;;;;;;;12.32;3.00;;;23.10;99.90;;;25.07;56.84;96918.19;170563;29;998;-73
2021/07/14 00:36:16;;;;;;;12.73;3.03;;;23.10;99.90;;;25.08;56.67;96914.34;171277;28;918;-72
2021/07/14 00:36:22;;;;;;;12.67;3.10;;;23.10;99.90;;;25.11;56.79;96920.06;169853;29;1406;-72
2021/07/14 00:36:27;;;;;;;11.47;3.20;;;23.10;99.90;;;25.15;56.67;96929.38;169970;29;1327;-72
2021/07/14 00:36:34;;;;;;;8.10;3.13;;;23.10;99.90;;;25.11;56.89;96917.31;169862;29;1015;-72
2021/07/14 00:36:40;;;;;;;8.35;3.10;;;23.10;99.90;;;25.12;56.79;96918.97;169896;29;1083;-72
2021/07/14 00:36:46;;;;;;;8.02;3.10;;;23.10;99.90;;;25.07;56.95;96916.28;169882;29;970;-72
2021/07/14 00:36:52;;;;;;;8.80;3.10;;;23.10;99.90;;;25.06;56.99;96925.63;170511;29;863;-72
2021/07/14 00:36:58;;;;;;;8.55;3.10;;;23.10;99.90;;;25.02;57.02;96919.09;170397;29;1222;-72
2021/07/14 00:37:04;;;;;;;9.17;3.23;;;23.10;99.90;;;25.03;57.06;96922.63;169850;29;1407;-72
2021/07/14 00:37:11;;;;;;;9.75;3.35;;;23.10;99.90;;;24.99;57.03;96922.41;169874;29;816;-72
2021/07/14 00:37:20;;;;;;;9.96;3.34;;;23.10;99.90;;;24.94;57.01;96916.97;169879;29;939;-72
2021/07/14 00:37:26;;;;;;;10.61;3.34;;;23.10;99.90;;;24.93;57.30;96920.81;170468;29;1171;-72
2021/07/14 00:37:32;;;;;;;11.40;3.33;;;23.10;99.90;;;24.97;57.32;96935.66;170487;29;1741;-72
2021/07/14 00:37:38;;;;;;;12.70;3.38;;;23.10;99.90;;;24.92;57.14;96919.19;169857;29;1577;-72
2021/07/14 00:37:44;;;;;;;12.65;3.35;;;23.10;99.90;;;24.87;57.60;96919.22;171081;28;1204;-72
2021/07/14 00:37:50;;;;;;;11.20;3.30;;;23.10;99.90;;;24.91;57.58;96923.88;170544;29;840;-72
2021/07/14 00:37:59;;;;;;;11.48;3.60;;;23.10;99.90;;;24.91;57.43;96921.13;169818;29;931;-72
2021/07/14 00:38:05;;;;;;;10.23;3.57;;;23.10;99.90;;;24.83;57.65;96916.22;170563;29;1035;-72
2021/07/14 00:38:12;;;;;;;8.60;3.35;;;23.10;99.90;;;24.85;57.75;96913.19;170509;28;1200;-73
2021/07/14 00:38:18;;;;;;;8.28;3.48;;;23.10;99.90;;;24.92;57.62;96919.19;170453;29;934;-73
2021/07/14 00:38:24;;;;;;;8.70;3.42;;;23.10;99.90;;;24.87;57.81;96921.97;171110;28;1428;-72
2021/07/14 00:38:30;;;;;;;8.38;3.30;;;23.10;99.90;;;24.89;57.66;96925.28;170557;29;1296;-72
2021/07/14 00:38:36;;;;;;;8.73;3.30;;;23.10;99.90;;;24.84;57.73;96923.38;170493;29;836;-72
2021/07/14 00:38:42;;;;;;;8.13;3.22;;;23.10;99.90;;;24.84;57.84;96925.28;169891;29;1006;-73
2021/07/14 00:38:48;;;;;;;7.50;3.10;;;23.10;99.90;;;24.75;57.85;96907.78;169911;29;994;-72
2021/07/14 00:38:54;;;;;;;7.73;2.97;;;23.00;99.90;;;24.83;58.12;96915.41;169787;29;1293;-73